createdAt,value
2019-03-27T00:04:13.160Z,55.52
2019-03-27T00:09:44.155Z,56.77
2019-03-27T00:15:12.982Z,57.24
2019-03-27T00:20:45.541Z,57.12
2019-03-27T00:26:08.027Z,57.21
2019-03-27T00:31:31.137Z,57.59
2019-03-27T00:36:54.203Z,58.33
2019-03-27T00:42:19.809Z,58.25
2019-03-27T00:47:43.156Z,57.65
2019-03-27T00:53:07.942Z,58.00
2019-03-27T00:58:34.822Z,58.52
2019-03-27T01:03:58.537Z,58.35
2019-03-27T01:09:22.483Z,58.27
2019-03-27T01:14:44.464Z,57.89
2019-03-27T01:20:07.777Z,58.46
2019-03-27T01:25:31.705Z,58.48
2019-03-27T01:30:55.155Z,58.46
2019-03-27T01:36:17.585Z,58.60
2019-03-27T01:41:41.431Z,57.96
2019-03-27T01:47:04.591Z,57.93
2019-03-27T01:52:27.215Z,57.79
2019-03-27T01:57:51.237Z,58.43
2019-03-27T02:03:15.125Z,58.26
2019-03-27T02:08:37.206Z,58.85
2019-03-27T02:13:59.344Z,58.58
2019-03-27T02:19:23.016Z,58.68
2019-03-27T02:24:45.732Z,58.31
2019-03-27T02:30:08.646Z,57.52
2019-03-27T02:35:30.945Z,53.40
2019-03-27T02:40:56.052Z,52.83
2019-03-27T02:46:24.909Z,52.43
2019-03-27T02:51:47.250Z,51.79
2019-03-27T02:57:11.173Z,52.29
2019-03-27T03:02:35.076Z,52.15
2019-03-27T03:07:57.711Z,52.14
2019-03-27T03:13:23.617Z,52.04
2019-03-27T03:18:46.586Z,51.88
2019-03-27T03:24:10.634Z,52.59
2019-03-27T03:29:35.971Z,53.09
2019-03-27T03:34:59.397Z,53.51
2019-03-27T03:40:21.875Z,53.79
2019-03-27T03:45:44.541Z,54.34
2019-03-27T03:51:07.936Z,54.15
2019-03-27T03:56:32.522Z,54.50
2019-03-27T04:01:55.314Z,54.83
2019-03-27T04:07:18.621Z,54.73
2019-03-27T04:12:42.432Z,54.92
2019-03-27T04:18:16.299Z,54.90
2019-03-27T04:23:39.792Z,54.30
2019-03-27T04:29:12.985Z,54.40
2019-03-27T04:34:35.526Z,53.90
2019-03-27T04:39:58.436Z,53.78
2019-03-27T04:45:21.198Z,53.23
2019-03-27T04:50:44.161Z,52.93
2019-03-27T04:56:07.526Z,52.53
2019-03-27T05:01:32.528Z,52.27
2019-03-27T05:06:54.538Z,50.89
2019-03-27T05:12:16.566Z,50.06
2019-03-27T05:17:45.990Z,49.94
2019-03-27T05:23:02.550Z,49.77
2019-03-27T05:28:24.949Z,49.13
2019-03-27T05:33:46.937Z,48.80
2019-03-27T05:39:09.088Z,48.42
2019-03-27T05:44:31.366Z,48.24
2019-03-27T05:49:53.530Z,48.23
2019-03-27T05:55:16.745Z,47.12
2019-03-27T06:00:39.380Z,47.32
2019-03-27T06:06:01.624Z,46.81
2019-03-27T06:11:24.694Z,46.75
2019-03-27T06:16:47.536Z,46.44
2019-03-27T06:22:09.912Z,46.12
2019-03-27T06:27:32.651Z,46.45
2019-03-27T06:32:55.574Z,46.20
2019-03-27T06:38:19.008Z,46.58
2019-03-27T06:43:42.358Z,46.37
2019-03-27T06:49:06.329Z,46.56
2019-03-27T06:54:28.134Z,45.72
2019-03-27T06:59:50.433Z,45.83
2019-03-27T07:05:14.119Z,46.05
2019-03-27T07:10:36.421Z,45.66
2019-03-27T07:15:58.545Z,45.31
2019-03-27T07:21:20.914Z,45.41
2019-03-27T07:26:42.960Z,45.18
2019-03-27T07:32:04.892Z,44.62
2019-03-27T07:37:28.410Z,44.62
2019-03-27T07:42:50.853Z,44.14
2019-03-27T07:48:13.024Z,43.54
2019-03-27T07:53:35.860Z,42.47
2019-03-27T07:58:59.777Z,41.98
2019-03-27T08:04:21.684Z,41.71
2019-03-27T08:09:44.664Z,41.54
2019-03-27T08:15:09.615Z,41.25
2019-03-27T08:20:31.558Z,41.23
2019-03-27T08:25:53.600Z,41.05
2019-03-27T08:31:16.756Z,40.93
2019-03-27T08:36:38.809Z,40.84
2019-03-27T08:42:01.047Z,40.92
2019-03-27T08:47:23.504Z,40.52
2019-03-27T08:52:45.730Z,40.06
2019-03-27T08:58:07.453Z,39.72
2019-03-27T09:03:29.915Z,39.47
2019-03-27T09:08:52.100Z,39.75
2019-03-27T09:14:14.239Z,38.97
2019-03-27T09:19:36.546Z,38.55
2019-03-27T09:24:59.988Z,38.05
2019-03-27T09:30:22.601Z,38.35
2019-03-27T09:35:44.996Z,37.51
2019-03-27T09:41:07.692Z,37.69
2019-03-27T09:46:29.882Z,37.77
2019-03-27T09:51:52.102Z,38.09
2019-03-27T09:57:18.431Z,38.40
2019-03-27T10:02:40.618Z,37.91
2019-03-27T10:08:02.978Z,37.04
2019-03-27T10:13:25.963Z,35.99
2019-03-27T10:18:49.301Z,35.91
2019-03-27T10:24:12.116Z,35.44
2019-03-27T10:29:44.626Z,35.24
2019-03-27T10:35:07.794Z,35.18
2019-03-27T10:40:30.116Z,34.63
2019-03-27T10:45:51.973Z,34.40
2019-03-27T10:51:15.072Z,34.43
2019-03-27T10:56:38.445Z,33.63
2019-03-27T11:02:00.868Z,32.48
2019-03-27T11:07:23.859Z,32.76
2019-03-27T11:12:47.479Z,31.74
2019-03-27T11:18:12.217Z,31.76
2019-03-27T11:23:36.368Z,31.57
2019-03-27T11:28:59.292Z,31.24
2019-03-27T11:34:21.843Z,30.93
2019-03-27T11:39:43.990Z,29.37
2019-03-27T11:45:08.452Z,27.09
2019-03-27T11:50:43.791Z,27.80
2019-03-27T11:55:55.408Z,28.50
2019-03-27T12:01:18.091Z,28.89
2019-03-27T12:06:40.750Z,28.61
2019-03-27T12:12:03.719Z,28.67
2019-03-27T12:17:26.831Z,28.51
2019-03-27T12:22:57.718Z,26.88
2019-03-27T12:28:13.854Z,26.83
2019-03-27T12:33:36.744Z,27.87
2019-03-27T12:38:59.035Z,28.82
2019-03-27T12:44:21.258Z,29.04
2019-03-27T12:49:44.456Z,29.18
2019-03-27T12:55:07.495Z,28.90
2019-03-27T13:00:29.715Z,28.05
2019-03-27T13:05:56.712Z,28.84
2019-03-27T13:11:19.765Z,27.92
2019-03-27T13:16:43.570Z,28.22
2019-03-27T13:22:06.208Z,28.19
2019-03-27T13:27:30.444Z,27.76
2019-03-27T13:32:56.956Z,27.98
2019-03-27T13:38:01.589Z,28.85
2019-03-27T13:43:05.464Z,28.53
2019-03-27T13:48:28.275Z,29.25
2019-03-27T13:54:00.994Z,28.91
2019-03-27T13:59:23.785Z,28.72
2019-03-27T14:04:46.800Z,28.60
2019-03-27T14:10:09.375Z,28.85
2019-03-27T14:15:31.976Z,29.86
2019-03-27T14:20:55.109Z,30.42
2019-03-27T14:26:17.827Z,30.65
2019-03-27T14:31:42.182Z,31.21
2019-03-27T14:37:05.360Z,31.77
2019-03-27T14:42:29.908Z,31.87
2019-03-27T14:47:52.837Z,32.20
2019-03-27T14:53:14.760Z,32.07
2019-03-27T14:58:37.347Z,32.35
2019-03-27T15:04:02.334Z,31.75
2019-03-27T15:09:26.005Z,31.57
2019-03-27T15:14:48.951Z,31.16
2019-03-27T15:20:12.682Z,31.53
2019-03-27T15:25:35.059Z,31.49
2019-03-27T15:30:39.602Z,31.11
2019-03-27T15:35:44.728Z,30.63
2019-03-27T15:41:07.339Z,30.23
2019-03-27T15:46:11.027Z,30.18
2019-03-27T15:51:14.645Z,31.80
2019-03-27T15:56:18.091Z,32.92
2019-03-27T16:01:21.719Z,32.44
2019-03-27T16:13:23.485Z,32.81
2019-03-27T16:59:27.535Z,31.81
2019-03-27T17:04:49.952Z,31.66
2019-03-27T17:11:15.782Z,31.47
2019-03-27T17:16:43.725Z,31.73
2019-03-27T17:22:18.550Z,31.03
2019-03-27T17:27:29.720Z,30.69
2019-03-27T17:32:51.914Z,30.12
2019-03-27T17:38:19.685Z,30.21
2019-03-27T17:43:48.250Z,29.85
2019-03-27T17:49:10.501Z,29.67
2019-03-27T17:54:32.344Z,29.82
2019-03-27T18:00:22.154Z,29.48
2019-03-27T18:05:52.401Z,28.66
2019-03-27T18:11:18.673Z,28.47
2019-03-27T18:16:42.288Z,28.71
2019-03-27T18:22:31.609Z,28.48
2019-03-27T18:28:59.379Z,28.15
2019-03-27T18:41:27.044Z,28.08
2019-03-27T18:54:27.259Z,28.69
2019-03-27T19:00:22.996Z,31.02
2019-03-27T19:06:46.309Z,34.31
2019-03-27T19:12:37.535Z,35.40
2019-03-27T19:18:00.316Z,35.85
2019-03-27T23:03:30.251Z,61.38
2019-03-27T23:54:55.561Z,61.60
